createdAt,value
2022-10-01T00:00:18.011Z,7
2022-10-01T00:01:18.071Z,7.5
2022-10-01T00:02:18.104Z,7.64286
2022-10-01T00:03:18.196Z,7.85714
2022-10-01T00:04:18.142Z,7.14286
2022-10-01T00:05:18.177Z,7.5
2022-10-01T00:06:18.212Z,7.42857
2022-10-01T00:07:18.264Z,7.64286
2022-10-01T00:08:18.279Z,7.71429
2022-10-01T00:09:18.317Z,8.14286
2022-10-01T00:10:18.344Z,7.71429
2022-10-01T00:11:18.389Z,8
2022-10-01T00:12:18.418Z,7.5
2022-10-01T00:13:18.449Z,7.5
2022-10-01T00:14:18.487Z,8
2022-10-01T00:15:18.521Z,7.85714
2022-10-01T00:16:18.627Z,7.5
2022-10-01T00:17:18.591Z,7.21429
2022-10-01T00:18:18.620Z,8
2022-10-01T00:19:18.655Z,8
2022-10-01T00:20:18.683Z,7.5
2022-10-01T00:21:18.723Z,7.5
2022-10-01T00:22:18.764Z,7.71429
2022-10-01T00:23:18.796Z,7.85714
2022-10-01T00:24:18.835Z,7.71429
2022-10-01T00:25:18.869Z,7.85714
2022-10-01T00:26:18.901Z,7.5
2022-10-01T00:27:18.938Z,8.14286
2022-10-01T00:28:19.027Z,7.92857
2022-10-01T00:29:19.002Z,7.35714
2022-10-01T00:30:19.039Z,8
2022-10-01T00:31:19.150Z,7.42857
2022-10-01T00:32:19.121Z,7.42857
2022-10-01T00:33:19.154Z,7.85714
2022-10-01T00:34:19.195Z,7.85714
2022-10-01T00:35:19.236Z,8.14286
2022-10-01T00:36:19.266Z,7.71429
2022-10-01T00:37:19.302Z,8
2022-10-01T00:38:19.337Z,7.85714
2022-10-01T00:39:19.373Z,7.85714
2022-10-01T00:40:19.404Z,8.64286
2022-10-01T00:41:19.438Z,7.64286
2022-10-01T00:42:19.484Z,7.92857
2022-10-01T00:43:19.540Z,8.42857
2022-10-01T00:44:19.557Z,8.5
2022-10-01T00:45:19.598Z,7.71429
2022-10-01T00:46:19.682Z,8.14286
2022-10-01T00:47:19.667Z,7.85714
2022-10-01T00:48:19.691Z,8.14286
2022-10-01T00:49:19.726Z,8.35714
2022-10-01T00:50:19.746Z,8.42857
2022-10-01T00:51:19.783Z,8
2022-10-01T00:52:19.807Z,7.64286
2022-10-01T00:53:19.847Z,8.35714
2022-10-01T00:54:19.877Z,8.5
2022-10-01T00:55:19.908Z,8.64286
2022-10-01T00:56:19.934Z,8.85714
2022-10-01T00:57:19.967Z,8.35714
2022-10-01T00:58:20.009Z,8.14286
2022-10-01T00:59:20.059Z,8
2022-10-01T01:00:20.059Z,8.85714
2022-10-01T01:01:20.173Z,9.42857
2022-10-01T01:02:20.160Z,8.42857
2022-10-01T01:03:20.162Z,8.42857
2022-10-01T01:04:20.201Z,9
2022-10-01T01:05:20.233Z,9
2022-10-01T01:06:20.272Z,8.92857
2022-10-01T01:07:20.307Z,8.64286
2022-10-01T01:08:20.344Z,9.21429
2022-10-01T01:09:20.389Z,9.14286
2022-10-01T01:10:20.421Z,8.64286
2022-10-01T01:11:20.452Z,9.14286
2022-10-01T01:12:20.495Z,9.21429
2022-10-01T01:13:20.536Z,8.71429
2022-10-01T01:14:20.572Z,9.71429
2022-10-01T01:15:20.607Z,9
2022-10-01T01:16:20.702Z,9.64286
2022-10-01T01:17:20.676Z,9.35714
2022-10-01T01:18:20.722Z,9.5
2022-10-01T01:19:20.750Z,9.21429
2022-10-01T01:20:20.786Z,10
2022-10-01T01:21:20.828Z,9.85714
2022-10-01T01:22:20.858Z,9.42857
2022-10-01T01:23:20.902Z,9.14286
2022-10-01T01:24:20.946Z,10.3571
2022-10-01T01:25:20.974Z,9.5
2022-10-01T01:26:21.009Z,9.85714
2022-10-01T01:27:21.048Z,9.64286
2022-10-01T01:28:21.120Z,9.64286
2022-10-01T01:29:21.120Z,9.71429
2022-10-01T01:30:21.156Z,9.35714
2022-10-01T01:31:21.273Z,9.21429
2022-10-01T01:32:21.224Z,9.14286
2022-10-01T01:33:21.257Z,9.92857
2022-10-01T01:34:21.310Z,10.5
2022-10-01T01:35:21.324Z,9.64286
2022-10-01T01:36:21.355Z,10.2143
2022-10-01T01:37:21.401Z,9.35714
2022-10-01T01:38:21.437Z,10.3571
2022-10-01T01:39:21.468Z,9.85714
2022-10-01T01:40:21.505Z,9.85714
2022-10-01T01:41:21.545Z,9.85714
2022-10-01T01:42:21.577Z,10.6429
2022-10-01T01:43:21.615Z,10.4286
2022-10-01T01:44:21.648Z,10.4286
2022-10-01T01:45:21.688Z,10.8571
2022-10-01T01:46:21.750Z,11.3571
2022-10-01T01:47:21.746Z,10.7143
2022-10-01T01:48:21.776Z,10.3571
2022-10-01T01:49:21.816Z,10.4286
2022-10-01T01:50:21.848Z,10.8571
2022-10-01T01:51:21.888Z,10.4286
2022-10-01T01:52:21.921Z,10.4286
2022-10-01T01:53:21.953Z,10.1429
2022-10-01T01:54:21.996Z,10.2143
2022-10-01T01:55:22.035Z,10.7143
2022-10-01T01:56:22.063Z,10.5
2022-10-01T01:57:22.103Z,10.8571
2022-10-01T01:58:22.129Z,10.9286
2022-10-01T01:59:22.165Z,11
2022-10-01T02:00:22.204Z,11.5
2022-10-01T02:01:22.289Z,10.9286
2022-10-01T02:02:22.298Z,10.8571
2022-10-01T02:03:22.309Z,10.2143
2022-10-01T02:04:22.332Z,10.7143
2022-10-01T02:05:22.372Z,10.7143
2022-10-01T02:06:22.409Z,10.6429
2022-10-01T02:07:22.492Z,10.4286
2022-10-01T02:08:22.490Z,10.7143
2022-10-01T02:09:22.527Z,10.7143
2022-10-01T02:10:22.567Z,11.1429
2022-10-01T02:11:22.603Z,10.9286
2022-10-01T02:12:22.636Z,11.1429
2022-10-01T02:13:22.669Z,11.5
2022-10-01T02:14:22.700Z,11.1429
2022-10-01T02:15:22.723Z,10.7143
2022-10-01T02:16:22.785Z,11.2143
2022-10-01T02:17:22.779Z,11
2022-10-01T02:18:22.821Z,10.8571
2022-10-01T02:19:22.861Z,11
2022-10-01T02:20:22.885Z,11.5
2022-10-01T02:21:22.921Z,11.8571
2022-10-01T02:22:22.957Z,12.2143
2022-10-01T02:23:22.988Z,11.5
2022-10-01T02:24:23.019Z,10.5
2022-10-01T02:25:23.053Z,11.4286
2022-10-01T02:26:23.092Z,11.1429
2022-10-01T02:27:23.124Z,11.7143
2022-10-01T02:28:23.241Z,11.8571
2022-10-01T02:29:23.205Z,11.2143
2022-10-01T02:30:23.248Z,11.9286
2022-10-01T02:31:23.318Z,11.6429
2022-10-01T02:32:23.297Z,11.4286
2022-10-01T02:33:23.336Z,11.9286
2022-10-01T02:34:23.363Z,11.9286
2022-10-01T02:35:23.407Z,11
2022-10-01T02:36:23.449Z,11.2143
2022-10-01T02:37:23.489Z,11.7143
2022-10-01T02:38:23.520Z,11.4286
2022-10-01T02:39:23.549Z,11.7143
2022-10-01T02:40:23.584Z,12.2143
2022-10-01T02:41:23.616Z,12
2022-10-01T02:42:23.643Z,11.9286
2022-10-01T02:43:23.677Z,11.7143
2022-10-01T02:44:23.708Z,11.9286
2022-10-01T02:45:23.738Z,11.7143
2022-10-01T02:46:23.768Z,11.6429
2022-10-01T02:47:23.806Z,11.4286
2022-10-01T02:48:23.840Z,10.9286
2022-10-01T02:49:27.423Z,11.5
2022-10-01T02:50:23.910Z,11.2143
2022-10-01T02:51:23.950Z,11.6429
2022-10-01T02:52:23.983Z,11.7143
2022-10-01T02:53:24.026Z,12.3571
2022-10-01T02:54:24.051Z,11.5
2022-10-01T02:55:24.091Z,11.8571
2022-10-01T02:56:24.128Z,11.8571
2022-10-01T02:57:24.165Z,11.2143
2022-10-01T02:58:24.197Z,11.7143
2022-10-01T02:59:24.234Z,12.2143
2022-10-01T03:00:24.263Z,11.6429
2022-10-01T03:01:24.368Z,11.9286
2022-10-01T03:02:24.409Z,11.9286
2022-10-01T03:03:24.364Z,11.7143
2022-10-01T03:04:24.397Z,11.8571
2022-10-01T03:05:24.435Z,11.8571
2022-10-01T03:06:24.468Z,11.6429
2022-10-01T03:07:24.500Z,11.6429
2022-10-01T03:08:24.527Z,10.9286
2022-10-01T03:09:24.569Z,11.5
2022-10-01T03:10:24.609Z,11.4286
2022-10-01T03:11:24.642Z,11.7143
2022-10-01T03:12:24.676Z,11
2022-10-01T03:13:24.701Z,11
2022-10-01T03:14:24.741Z,11.6429
2022-10-01T03:15:24.770Z,12.6429
2022-10-01T03:16:24.873Z,12.5
2022-10-01T03:17:24.842Z,11.6429
2022-10-01T03:18:24.871Z,11.4286
2022-10-01T03:19:24.906Z,11.7143
2022-10-01T03:20:24.936Z,11.8571
2022-10-01T03:21:24.966Z,11.7143
2022-10-01T03:22:25.004Z,11.9286
2022-10-01T03:23:25.046Z,11.3571
2022-10-01T03:24:25.075Z,11
2022-10-01T03:25:25.105Z,11.8571
2022-10-01T03:26:25.136Z,11.7143
2022-10-01T03:27:25.179Z,11.2143
2022-10-01T03:28:25.299Z,11.4286
2022-10-01T03:29:25.253Z,11.3571
2022-10-01T03:30:25.290Z,10.9286
2022-10-01T03:31:25.399Z,11.7143
2022-10-01T03:32:25.364Z,10.7143
2022-10-01T03:33:25.398Z,11
2022-10-01T03:34:25.435Z,11.5
2022-10-01T03:35:25.468Z,11.4286
2022-10-01T03:36:25.502Z,11
2022-10-01T03:37:25.551Z,11.3571
2022-10-01T03:38:25.579Z,10.7143
2022-10-01T03:39:25.631Z,12
2022-10-01T03:40:25.650Z,11.2143
2022-10-01T03:41:25.689Z,11.3571
2022-10-01T03:42:25.728Z,10.7143
2022-10-01T03:43:25.746Z,10.9286
2022-10-01T03:44:25.783Z,11.5
2022-10-01T03:45:25.849Z,11.7143
2022-10-01T03:46:25.848Z,11.5
2022-10-01T03:47:25.888Z,11.5
2022-10-01T03:48:25.926Z,10.8571
2022-10-01T03:49:25.955Z,12
2022-10-01T03:50:25.982Z,11.7143
2022-10-01T03:51:26.014Z,11.6429
2022-10-01T03:52:26.050Z,12.1429
2022-10-01T03:53:26.091Z,11.3571
2022-10-01T03:54:26.127Z,12.1429
2022-10-01T03:55:26.159Z,11.2143
2022-10-01T03:56:26.195Z,11.5
2022-10-01T03:57:26.222Z,11.1429
2022-10-01T03:58:26.263Z,12.1429
2022-10-01T03:59:26.303Z,11.6429
2022-10-01T04:00:26.337Z,12.2143
2022-10-01T04:01:26.448Z,11.3571
2022-10-01T04:02:26.463Z,12.3571
2022-10-01T04:03:26.439Z,12.6429
2022-10-01T04:04:26.479Z,12.3571
2022-10-01T04:05:26.515Z,11.5
2022-10-01T04:06:26.544Z,11.7143
2022-10-01T04:07:26.572Z,12
2022-10-01T04:08:26.604Z,11.6429
2022-10-01T04:09:26.637Z,11.9286
2022-10-01T04:10:26.679Z,11.7143
2022-10-01T04:11:26.711Z,11.6429
2022-10-01T04:12:26.748Z,11.4286
2022-10-01T04:13:26.783Z,12.2143
2022-10-01T04:14:26.819Z,12.1429
2022-10-01T04:15:26.858Z,11.5
2022-10-01T04:16:26.968Z,12.5
2022-10-01T04:17:26.939Z,11.7143
2022-10-01T04:18:26.970Z,12.2143
2022-10-01T04:19:27.005Z,12.3571
2022-10-01T04:20:27.043Z,12.3571
2022-10-01T04:21:27.072Z,12.5
2022-10-01T04:22:27.105Z,12.1429
2022-10-01T04:23:27.142Z,12.2143
2022-10-01T04:24:27.177Z,12.1429
2022-10-01T04:25:27.210Z,11.9286
2022-10-01T04:26:27.248Z,11.6429
2022-10-01T04:27:27.277Z,12.1429
2022-10-01T04:28:27.339Z,11.4286
2022-10-01T04:29:27.340Z,12.7143
2022-10-01T04:30:27.374Z,12
2022-10-01T04:31:27.596Z,12.8571
2022-10-01T04:32:27.439Z,12.1429
2022-10-01T04:33:27.476Z,11.8571
2022-10-01T04:34:27.513Z,12
2022-10-01T04:35:27.544Z,11.1429
2022-10-01T04:36:27.588Z,11.5
2022-10-01T04:37:27.620Z,11.4286
2022-10-01T04:38:27.646Z,11.8571
2022-10-01T04:39:27.703Z,11.7143
2022-10-01T04:40:27.720Z,11.2143
2022-10-01T04:41:27.748Z,11.5
2022-10-01T04:42:27.779Z,12.1429
2022-10-01T04:43:27.813Z,11.5
2022-10-01T04:44:27.851Z,11.3571
2022-10-01T04:45:27.875Z,12
2022-10-01T04:46:28.015Z,11.5
2022-10-01T04:47:27.948Z,11.4286
2022-10-01T04:48:27.984Z,11.8571
2022-10-01T04:49:28.017Z,11.2143
2022-10-01T04:50:28.045Z,10.8571
2022-10-01T04:51:28.085Z,11.2143
2022-10-01T04:52:28.118Z,10.8571
2022-10-01T04:53:28.151Z,11.5
2022-10-01T04:54:28.182Z,10.5
2022-10-01T04:55:28.218Z,10.8571
2022-10-01T04:56:28.255Z,10.8571
2022-10-01T04:57:28.281Z,11.5
2022-10-01T04:58:28.317Z,11.3571
2022-10-01T04:59:28.353Z,11.1429
2022-10-01T05:00:28.383Z,10.8571
2022-10-01T05:01:28.473Z,10.8571
2022-10-01T05:02:28.484Z,10.5
2022-10-01T05:03:28.477Z,10.4286
2022-10-01T05:04:28.508Z,10.5
2022-10-01T05:05:28.543Z,10.3571
2022-10-01T05:06:28.579Z,10.3571
2022-10-01T05:07:28.615Z,10.6429
2022-10-01T05:08:28.659Z,11.2143
2022-10-01T05:09:28.679Z,10.9286
2022-10-01T05:10:28.712Z,10.2143
2022-10-01T05:11:28.741Z,11.2143
2022-10-01T05:12:28.776Z,9.85714
2022-10-01T05:13:28.812Z,10.2143
2022-10-01T05:14:28.842Z,10.5
2022-10-01T05:15:28.873Z,9.71429
2022-10-01T05:16:28.936Z,10
2022-10-01T05:17:28.938Z,10.1429
2022-10-01T05:18:28.971Z,9.92857
2022-10-01T05:19:29.013Z,10.2143
2022-10-01T05:20:29.042Z,9.5
2022-10-01T05:21:29.083Z,9.64286
2022-10-01T05:22:29.117Z,10.7143
2022-10-01T05:23:29.159Z,10.1429
2022-10-01T05:24:29.194Z,9.64286
2022-10-01T05:25:29.235Z,9.85714
2022-10-01T05:26:29.267Z,9.42857
2022-10-01T05:27:29.301Z,9.85714
2022-10-01T05:28:29.436Z,9.85714
2022-10-01T05:29:29.376Z,9.85714
2022-10-01T05:30:29.411Z,10.3571
2022-10-01T05:31:29.521Z,9.5
2022-10-01T05:32:29.488Z,9.92857
2022-10-01T05:33:29.521Z,9.92857
2022-10-01T05:34:29.542Z,10
2022-10-01T05:35:29.577Z,9.85714
2022-10-01T05:36:29.611Z,9.85714
2022-10-01T05:37:29.656Z,9.64286
2022-10-01T05:38:29.676Z,9.64286
2022-10-01T05:39:29.719Z,10.3571
2022-10-01T05:40:29.755Z,9.85714
2022-10-01T05:41:29.782Z,9.71429
2022-10-01T05:42:29.813Z,10
2022-10-01T05:43:29.844Z,9.85714
2022-10-01T05:44:29.882Z,9.42857
2022-10-01T05:45:29.950Z,9.42857
2022-10-01T05:46:29.947Z,10.1429
2022-10-01T05:47:29.984Z,9.35714
2022-10-01T05:48:30.022Z,9.35714
2022-10-01T05:49:30.077Z,10
2022-10-01T05:50:30.086Z,9.14286
2022-10-01T05:51:30.116Z,9
2022-10-01T05:52:30.150Z,9.71429
2022-10-01T05:53:30.175Z,9.42857
2022-10-01T05:54:30.240Z,10.3571
2022-10-01T05:55:30.248Z,10
2022-10-01T05:56:30.275Z,10
2022-10-01T05:57:30.301Z,9.21429
2022-10-01T05:58:30.327Z,9.85714
2022-10-01T05:59:31.955Z,9.21429
2022-10-01T06:00:30.389Z,9.35714
2022-10-01T06:01:30.419Z,10.3571
2022-10-01T06:02:30.619Z,9.42857
2022-10-01T06:03:30.478Z,9.5
2022-10-01T06:04:30.514Z,9.35714
2022-10-01T06:05:30.544Z,9.42857
2022-10-01T06:06:30.579Z,9.42857
2022-10-01T06:07:30.613Z,8.85714
2022-10-01T06:08:30.646Z,9.42857
2022-10-01T06:09:30.676Z,9.64286
2022-10-01T06:10:30.703Z,9.21429
2022-10-01T06:11:30.757Z,9.21429
2022-10-01T06:12:30.774Z,10
2022-10-01T06:13:30.815Z,9.71429
2022-10-01T06:14:30.848Z,9.5
2022-10-01T06:15:30.883Z,10
2022-10-01T06:16:30.974Z,9.71429
2022-10-01T06:17:30.961Z,10
2022-10-01T06:18:30.989Z,9.14286
2022-10-01T06:19:31.023Z,9.42857
2022-10-01T06:20:31.060Z,9.42857
2022-10-01T06:21:31.392Z,9.42857
2022-10-01T06:22:31.130Z,8.85714
2022-10-01T06:23:31.165Z,9.35714
2022-10-01T06:24:31.204Z,9.5
2022-10-01T06:25:31.233Z,8.71429
2022-10-01T06:26:31.301Z,9.71429
2022-10-01T06:27:31.303Z,9.21429
2022-10-01T06:28:31.380Z,9.42857
2022-10-01T06:29:31.362Z,9.5
2022-10-01T06:30:31.390Z,9.64286
2022-10-01T06:31:31.810Z,9.35714
2022-10-01T06:32:34.766Z,9.85714
2022-10-01T06:33:31.487Z,9.14286
2022-10-01T06:34:31.516Z,9.5
2022-10-01T06:35:31.553Z,9.14286
2022-10-01T06:36:31.582Z,9.85714
2022-10-01T06:37:31.619Z,9.35714
2022-10-01T06:38:31.655Z,9.64286
2022-10-01T06:39:31.689Z,8.64286
2022-10-01T06:40:31.721Z,9.21429
2022-10-01T06:41:32.023Z,9.14286
2022-10-01T06:42:31.784Z,8.14286
2022-10-01T06:43:31.815Z,9.21429
2022-10-01T06:44:31.851Z,8.92857
2022-10-01T06:45:31.926Z,8.92857
2022-10-01T06:46:31.912Z,9.5
2022-10-01T06:47:31.941Z,9
2022-10-01T06:48:31.976Z,8.71429
2022-10-01T06:49:32.029Z,9.14286
2022-10-01T06:50:32.043Z,9.35714
2022-10-01T06:51:32.476Z,9
2022-10-01T06:52:32.098Z,8.92857
2022-10-01T06:53:32.145Z,9.42857
2022-10-01T06:54:32.166Z,8.64286
2022-10-01T06:55:32.201Z,9
2022-10-01T06:56:32.233Z,9.35714
2022-10-01T06:57:32.268Z,9
2022-10-01T06:58:32.303Z,8.5
2022-10-01T06:59:32.340Z,8.71429
2022-10-01T07:00:32.364Z,9.21429
2022-10-01T07:01:32.927Z,8.85714
2022-10-01T07:02:32.516Z,8.92857
2022-10-01T07:03:32.472Z,8.71429
2022-10-01T07:04:32.502Z,8.5
2022-10-01T07:05:32.537Z,8.5
2022-10-01T07:06:32.563Z,8.35714
2022-10-01T07:07:32.589Z,8.64286
2022-10-01T07:08:32.621Z,8.35714
2022-10-01T07:09:32.651Z,7.92857
2022-10-01T07:10:32.685Z,9.21429
2022-10-01T07:11:33.085Z,8.71429
2022-10-01T07:12:32.746Z,8.21429
2022-10-01T07:13:32.777Z,8.71429
2022-10-01T07:14:32.807Z,8.42857
2022-10-01T07:15:32.840Z,8.85714
2022-10-01T07:16:32.928Z,8
2022-10-01T07:17:32.915Z,9.14286
2022-10-01T07:18:32.951Z,8.85714
2022-10-01T07:19:32.988Z,9
2022-10-01T07:20:33.030Z,8.85714
2022-10-01T07:21:33.359Z,9
2022-10-01T07:22:33.081Z,8.5
2022-10-01T07:23:33.114Z,9
2022-10-01T07:24:33.149Z,8.71429
2022-10-01T07:25:33.181Z,8.85714
2022-10-01T07:26:33.211Z,9.5
2022-10-01T07:27:33.243Z,8.71429
2022-10-01T07:28:33.276Z,8.5
2022-10-01T07:29:33.308Z,9
2022-10-01T07:30:33.375Z,8.71429
2022-10-01T07:31:33.849Z,8.92857
2022-10-01T07:32:33.417Z,8.21429
2022-10-01T07:33:33.453Z,8.5
2022-10-01T07:34:33.489Z,9.42857
2022-10-01T07:35:33.513Z,9.14286
2022-10-01T07:36:33.550Z,9.14286
2022-10-01T07:37:33.580Z,9.14286
2022-10-01T07:38:33.617Z,9.35714
2022-10-01T07:39:33.642Z,8.85714
2022-10-01T07:40:33.683Z,8.5
2022-10-01T07:41:34.010Z,8.85714
2022-10-01T07:42:33.751Z,8.85714
2022-10-01T07:43:33.788Z,8.5
2022-10-01T07:44:33.832Z,8.85714
2022-10-01T07:45:33.914Z,8.85714
2022-10-01T07:46:34.882Z,8.42857
2022-10-01T07:47:33.923Z,8.5
2022-10-01T07:48:33.957Z,8.35714
2022-10-01T07:49:33.996Z,8.64286
2022-10-01T07:50:34.032Z,8.85714
2022-10-01T07:51:34.470Z,8.14286
2022-10-01T07:52:34.106Z,8.5
2022-10-01T07:53:34.138Z,8.14286
2022-10-01T07:54:34.170Z,8.35714
2022-10-01T07:55:34.208Z,7.64286
2022-10-01T07:56:34.235Z,8.64286
2022-10-01T07:57:34.261Z,8.85714
2022-10-01T07:58:34.291Z,8.35714
2022-10-01T07:59:34.334Z,7.92857
2022-10-01T08:00:34.359Z,8.5
2022-10-01T08:01:34.727Z,7.71429
2022-10-01T08:02:34.493Z,7.92857
2022-10-01T08:03:34.461Z,8
2022-10-01T08:04:34.486Z,7.64286
2022-10-01T08:05:34.510Z,7.64286
2022-10-01T08:06:34.545Z,8
2022-10-01T08:07:34.584Z,7.42857
2022-10-01T08:08:34.610Z,7.71429
2022-10-01T08:09:34.648Z,7.71429
2022-10-01T08:10:34.703Z,8
2022-10-01T08:11:35.101Z,8.14286
2022-10-01T08:12:34.742Z,7.5
2022-10-01T08:13:34.771Z,7.92857
2022-10-01T08:14:34.808Z,7.5
2022-10-01T08:15:34.844Z,7.5
2022-10-01T08:16:34.886Z,7.5
2022-10-01T08:17:34.900Z,7.14286
2022-10-01T08:18:34.943Z,7.85714
2022-10-01T08:19:34.965Z,7.92857
2022-10-01T08:20:35.006Z,7.42857
2022-10-01T08:21:35.434Z,7.71429
2022-10-01T08:22:39.778Z,7.5
2022-10-01T08:23:35.093Z,7.42857
2022-10-01T08:24:35.125Z,7.5
2022-10-01T08:25:35.155Z,7.64286
2022-10-01T08:26:35.185Z,7.35714
2022-10-01T08:27:35.217Z,7.5
2022-10-01T08:28:35.251Z,7.5
2022-10-01T08:29:35.283Z,7.92857
2022-10-01T08:30:35.318Z,7.5
2022-10-01T08:31:35.573Z,7.42857
2022-10-01T08:32:35.389Z,7.5
2022-10-01T08:33:35.426Z,7.64286
2022-10-01T08:34:35.458Z,7.35714
2022-10-01T08:35:35.494Z,7.5
2022-10-01T08:36:35.533Z,7.5
2022-10-01T08:37:35.570Z,7.64286
2022-10-01T08:38:35.601Z,7.64286
2022-10-01T08:39:35.632Z,7.42857
2022-10-01T08:40:35.666Z,7.85714
2022-10-01T08:41:35.982Z,7
2022-10-01T08:42:35.734Z,7.35714
2022-10-01T08:43:35.767Z,7
2022-10-01T08:44:35.783Z,7.35714
2022-10-01T08:45:35.878Z,7.35714
2022-10-01T08:46:35.847Z,7.21429
2022-10-01T08:47:35.880Z,7
2022-10-01T08:48:35.912Z,7.14286
2022-10-01T08:49:35.939Z,7.21429
2022-10-01T08:50:35.975Z,6.92857
2022-10-01T08:51:36.309Z,7.14286
2022-10-01T08:52:36.038Z,7
2022-10-01T08:53:36.064Z,6.5
2022-10-01T08:54:36.101Z,6.92857
2022-10-01T08:55:36.138Z,7.14286
2022-10-01T08:56:36.163Z,6.92857
2022-10-01T08:57:36.202Z,7
2022-10-01T08:58:36.230Z,6.85714
2022-10-01T08:59:36.269Z,6.71429
2022-10-01T09:00:36.304Z,6.42857
2022-10-01T09:01:36.575Z,6.64286
2022-10-01T09:02:36.375Z,6.21429
2022-10-01T09:03:36.404Z,7.14286
2022-10-01T09:04:36.490Z,6.64286
2022-10-01T09:05:36.476Z,6.64286
2022-10-01T09:06:36.502Z,6.21429
2022-10-01T09:07:36.538Z,6.64286
2022-10-01T09:08:36.571Z,6
2022-10-01T09:09:36.600Z,6.85714
2022-10-01T09:10:36.633Z,5.92857
2022-10-01T09:11:37.131Z,6.35714
2022-10-01T09:12:36.707Z,6.42857
2022-10-01T09:13:36.751Z,6.92857
2022-10-01T09:14:36.774Z,6.64286
2022-10-01T09:15:36.803Z,6.71429
2022-10-01T09:16:36.882Z,6.71429
2022-10-01T09:17:36.868Z,6.71429
2022-10-01T09:18:36.903Z,6.85714
2022-10-01T09:19:39.529Z,6.5
2022-10-01T09:20:36.977Z,6.14286
2022-10-01T09:21:37.100Z,5.92857
2022-10-01T09:22:37.038Z,6.14286
2022-10-01T09:23:37.068Z,6.64286
2022-10-01T09:24:37.103Z,6.64286
2022-10-01T09:25:37.137Z,6.64286
2022-10-01T09:26:37.171Z,6.14286
2022-10-01T09:27:37.207Z,6.21429
2022-10-01T09:28:37.232Z,6.14286
2022-10-01T09:29:37.266Z,6.35714
2022-10-01T09:30:37.308Z,6.14286
2022-10-01T09:31:37.787Z,5.42857
2022-10-01T09:32:37.376Z,5.71429
2022-10-01T09:33:37.408Z,5.92857
2022-10-01T09:34:37.437Z,6.42857
2022-10-01T09:35:37.467Z,6.14286
2022-10-01T09:36:37.496Z,6
2022-10-01T09:37:37.522Z,6.14286
2022-10-01T09:38:37.561Z,5.92857
2022-10-01T09:39:37.589Z,6
2022-10-01T09:40:37.619Z,5.85714
2022-10-01T09:41:37.712Z,5.85714
2022-10-01T09:42:37.684Z,5.64286
2022-10-01T09:43:37.716Z,5.5
2022-10-01T09:44:37.754Z,5.42857
2022-10-01T09:45:37.914Z,8.42857
2022-10-01T09:46:37.827Z,7.92857
2022-10-01T09:47:37.860Z,5.85714
2022-10-01T09:48:37.899Z,5.5
2022-10-01T09:49:37.926Z,5.14286
2022-10-01T09:50:37.961Z,4.85714
2022-10-01T09:51:40.443Z,5.64286
2022-10-01T09:52:38.032Z,5.21429
2022-10-01T09:53:38.065Z,5.21429
2022-10-01T09:54:38.096Z,5
2022-10-01T09:55:38.128Z,5.85714
2022-10-01T09:56:38.168Z,5.14286
2022-10-01T09:57:38.205Z,4.64286
2022-10-01T09:58:38.247Z,5.21429
2022-10-01T09:59:38.271Z,5.21429
2022-10-01T10:00:38.299Z,5
2022-10-01T10:01:38.715Z,4.92857
2022-10-01T10:02:38.516Z,4.71429
2022-10-01T10:03:38.545Z,5
2022-10-01T10:04:38.440Z,5
2022-10-01T10:05:38.476Z,5.5
2022-10-01T10:06:38.865Z,5.14286
2022-10-01T10:07:38.547Z,4.64286
2022-10-01T10:08:38.585Z,5.14286
2022-10-01T10:09:38.618Z,4.85714
2022-10-01T10:10:38.657Z,5.42857
2022-10-01T10:11:38.693Z,4.42857
2022-10-01T10:12:38.736Z,4.85714
2022-10-01T10:13:38.767Z,4.85714
2022-10-01T10:14:38.803Z,4.71429
2022-10-01T10:15:38.867Z,5.21429
2022-10-01T10:16:38.988Z,5.71429
2022-10-01T10:17:38.883Z,5.35714
2022-10-01T10:18:38.916Z,4.92857
2022-10-01T10:19:38.946Z,5.35714
2022-10-01T10:20:38.978Z,5.14286
2022-10-01T10:21:39.012Z,5.21429
2022-10-01T10:22:39.039Z,5.21429
2022-10-01T10:23:39.070Z,5
2022-10-01T10:24:39.107Z,5.92857
2022-10-01T10:25:39.148Z,5.42857
2022-10-01T10:26:39.619Z,5.42857
2022-10-01T10:27:39.214Z,5
2022-10-01T10:28:42.113Z,5.14286
2022-10-01T10:29:39.276Z,5.35714
2022-10-01T10:30:39.313Z,5.35714
2022-10-01T10:31:39.454Z,5.5
2022-10-01T10:32:39.370Z,5.5
2022-10-01T10:33:39.407Z,5.21429
2022-10-01T10:34:39.437Z,5
2022-10-01T10:35:39.467Z,5.71429
2022-10-01T10:36:39.511Z,5.14286
2022-10-01T10:37:39.539Z,5.64286
2022-10-01T10:38:39.560Z,5.35714
2022-10-01T10:39:39.602Z,5.21429
2022-10-01T10:40:39.624Z,5.64286
2022-10-01T10:41:39.648Z,5.64286
2022-10-01T10:42:39.675Z,5.71429
2022-10-01T10:43:39.722Z,5.64286
2022-10-01T10:44:39.963Z,5.64286
2022-10-01T10:45:39.783Z,5.21429
2022-10-01T10:46:42.907Z,5.64286
2022-10-01T10:47:39.842Z,5.92857
2022-10-01T10:48:39.877Z,6
2022-10-01T10:49:39.906Z,5.42857
2022-10-01T10:50:39.940Z,5.85714
2022-10-01T10:51:39.979Z,5.85714
2022-10-01T10:52:43.743Z,5.5
2022-10-01T10:53:40.041Z,5.71429
2022-10-01T10:54:40.083Z,6.21429
2022-10-01T10:55:40.111Z,5.85714
2022-10-01T10:56:40.148Z,5.71429
2022-10-01T10:57:40.185Z,5.92857
2022-10-01T10:58:40.221Z,6
2022-10-01T10:59:40.246Z,6
2022-10-01T11:00:40.269Z,5.92857
2022-10-01T11:01:40.460Z,5.85714
2022-10-01T11:02:40.379Z,5.92857
2022-10-01T11:03:40.366Z,6.21429
2022-10-01T11:04:40.400Z,6.35714
2022-10-01T11:05:40.436Z,5.64286
2022-10-01T11:06:40.509Z,5.71429
2022-10-01T11:07:40.490Z,5.85714
2022-10-01T11:08:40.514Z,5.42857
2022-10-01T11:09:40.543Z,5.85714
2022-10-01T11:10:40.580Z,5.85714
2022-10-01T11:11:40.618Z,5.5
2022-10-01T11:12:40.649Z,5.71429
2022-10-01T11:13:40.683Z,5.71429
2022-10-01T11:14:40.709Z,6
2022-10-01T11:15:40.772Z,5.92857
2022-10-01T11:16:40.790Z,5.5
2022-10-01T11:17:40.810Z,5.5
2022-10-01T11:18:40.843Z,5.71429
2022-10-01T11:19:40.873Z,5.64286
2022-10-01T11:20:40.903Z,5.21429
2022-10-01T11:21:40.941Z,5.21429
2022-10-01T11:22:40.975Z,5.21429
2022-10-01T11:23:41.009Z,4.92857
2022-10-01T11:24:41.068Z,5.21429
2022-10-01T11:25:41.083Z,5.42857
2022-10-01T11:26:41.113Z,5.42857
2022-10-01T11:27:41.149Z,4.92857
2022-10-01T11:28:41.177Z,4.92857
2022-10-01T11:29:41.207Z,5.64286
2022-10-01T11:30:41.231Z,5.64286
2022-10-01T11:31:41.343Z,5.5
2022-10-01T11:32:41.298Z,5.42857
2022-10-01T11:33:41.333Z,5.42857
2022-10-01T11:34:41.370Z,5
2022-10-01T11:35:41.397Z,5.14286
2022-10-01T11:36:41.442Z,5.42857
2022-10-01T11:37:41.468Z,5.42857
2022-10-01T11:38:41.502Z,4.92857
2022-10-01T11:39:41.536Z,5.14286
2022-10-01T11:40:41.579Z,4.85714
2022-10-01T11:41:41.602Z,4.92857
2022-10-01T11:42:41.631Z,4.71429
2022-10-01T11:43:41.668Z,4.92857
2022-10-01T11:44:41.702Z,4.5
2022-10-01T11:45:41.729Z,4.64286
2022-10-01T11:46:41.965Z,4.71429
2022-10-01T11:47:41.782Z,4.85714
2022-10-01T11:48:41.817Z,4.85714
2022-10-01T11:49:41.840Z,4.64286
2022-10-01T11:50:41.869Z,4.71429
2022-10-01T11:51:41.898Z,4.5
2022-10-01T11:52:41.934Z,4.71429
2022-10-01T11:53:41.957Z,4.14286
2022-10-01T11:54:42.001Z,4.71429
2022-10-01T11:55:42.034Z,4.64286
2022-10-01T11:56:42.071Z,4.14286
2022-10-01T11:57:42.095Z,4.42857
2022-10-01T11:58:42.138Z,3.85714
2022-10-01T11:59:42.170Z,4.42857
2022-10-01T12:00:42.200Z,4
2022-10-01T12:01:42.303Z,4.14286
2022-10-01T12:02:42.265Z,3.92857
2022-10-01T12:03:42.305Z,3.85714
2022-10-01T12:04:42.333Z,3.85714
2022-10-01T12:05:42.453Z,3.85714
2022-10-01T12:06:42.457Z,4.14286
2022-10-01T12:07:42.424Z,3.5
2022-10-01T12:08:42.465Z,3.92857
2022-10-01T12:09:42.493Z,3.42857
2022-10-01T12:10:42.526Z,3.64286
2022-10-01T12:11:42.565Z,3.71429
2022-10-01T12:12:42.604Z,3.71429
2022-10-01T12:13:42.643Z,3.64286
2022-10-01T12:14:42.677Z,3.42857
2022-10-01T12:15:42.791Z,3.35714
2022-10-01T12:16:42.784Z,3.35714
2022-10-01T12:17:42.777Z,3.21429
2022-10-01T12:18:42.798Z,3.42857
2022-10-01T12:19:42.837Z,3.35714
2022-10-01T12:20:42.864Z,3.21429
2022-10-01T12:21:42.900Z,3.35714
2022-10-01T12:22:42.953Z,3.21429
2022-10-01T12:23:42.970Z,3.42857
2022-10-01T12:24:43.004Z,3.21429
2022-10-01T12:25:43.031Z,3.64286
2022-10-01T12:26:43.065Z,3.21429
2022-10-01T12:27:43.095Z,3.35714